Date,TemperatureHighF,TemperatureAvgF,TemperatureLowF,DewpointHighF,DewpointAvgF,DewpointLowF,HumidityHigh,HumidityAvg,HumidityLow,PressureMaxIn,PressureMinIn,WindSpeedMaxMPH,WindSpeedAvgMPH,GustSpeedMaxMPH,PrecipitationSumIn
2014-1-1,84,74,66,66,62,59,86,68,45,29.74,29.53,0,0,0,0.00
2014-1-2,101,82,72,68,60,48,81,53,20,29.47,29.29,0,0,0,0.00
2014-1-3,83,75,68,70,65,57,90,72,50,29.50,29.14,1,0,1,0.00
2014-1-4,81,75,71,67,63,60,84,68,51,29.50,29.20,12,3,12,0.00
2014-1-5,86,76,68,68,64,61,91,68,46,29.56,29.32,9,2,9,0.00
2014-1-6,86,75,68,65,57,46,84,56,29,29.71,29.38,8,2,8,0.00
2014-1-7,73,68,66,61,57,53,80,68,52,29.82,29.71,12,2,12,0.00
2014-1-9,77,72,67,58,53,50,68,52,43,29.97,29.88,9,2,9,0.00
2014-1-10,85,73,64,62,59,56,81,63,39,29.91,29.76,10,1,10,0.00
2014-1-11,89,77,67,66,60,55,77,57,34,29.82,29.65,4,0,4,0.00
2014-1-12,84,75,68,68,63,60,92,69,45,29.85,29.71,8,1,8,0.00
2014-1-13,81,73,68,68,60,55,91,65,46,29.88,29.79,8,3,8,0.00
2014-1-14,85,74,65,64,61,59,85,66,44,29.91,29.79,6,1,6,0.00
2014-1-15,134,70,32,74,48,11,79,51,11,29.91,29.74,6,2,6,0.00
2014-1-16,32,32,32,11,11,11,41,41,41,29.82,29.68,8,2,8,0.00
2014-1-17,89,37,32,68,17,11,53,43,41,29.76,29.62,6,2,6,0.00
2014-1-18,93,38,32,66,17,10,44,42,38,29.65,29.47,7,1,7,0.00
2014-1-19,86,37,32,67,18,10,64,46,39,29.56,29.47,8,2,8,0.00
2014-1-20,84,59,32,69,46,16,81,61,50,29.53,29.44,11,2,11,0.00
2014-1-21,74,72,70,72,70,68,97,93,82,29.56,29.44,10,2,10,0.16
2014-1-22,74,70,32,71,63,26,95,79,61,29.91,29.56,9,4,9,0.00
2014-1-23,73,53,32,69,47,26,94,81,73,29.91,29.79,8,2,8,0.12
2014-1-24,82,74,68,67,66,64,88,76,56,29.79,29.44,9,2,9,0.00
2014-1-25,77,71,66,66,59,49,87,69,47,29.88,29.44,11,3,11,0.05
2014-1-26,78,53,32,60,39,12,85,59,41,30.03,29.85,8,1,8,0.04
2014-1-27,84,48,32,62,28,12,72,47,40,30.00,29.88,8,1,8,0.00
2014-1-28,82,53,32,60,35,14,65,51,45,29.91,29.74,8,5,8,0.00
2014-10-13,74,65,63,54,54,50,72,67,49,29.50,29.44,0,0,0,0.00
2014-10-14,69,62,58,55,49,23,81,64,40,29.85,29.47,13,2,13,0.63
2014-10-15,32,32,32,24,24,24,73,73,73,30.06,29.82,18,4,18,0.04
2014-10-16,32,32,32,24,24,24,73,73,73,30.15,30.00,6,3,6,0.00
2014-10-17,32,32,32,24,24,24,73,73,73,30.30,30.12,2,2,2,0.00
2014-10-20,77,65,59,56,53,49,84,67,45,30.50,30.12,14,6,14,0.00
2014-10-21,114,61,32,91,49,21,75,66,49,30.53,30.21,6,1,6,0.00
2014-10-22,77,66,58,55,50,47,73,58,41,30.47,30.15,5,1,5,0.00
2014-10-23,93,70,59,62,54,49,73,58,30,30.18,29.74,7,2,7,0.00
2014-10-24,88,74,66,66,61,58,83,65,42,30.18,29.94,5,2,5,0.00
2014-10-25,93,75,68,64,60,57,81,61,36,30.03,29.91,4,2,4,0.00
2014-10-26,104,77,66,64,61,56,85,64,25,30.06,29.71,8,5,8,0.00
2014-10-27,95,77,66,68,59,44,81,57,28,29.97,29.59,11,6,11,0.00
2014-10-28,91,74,32,55,49,19,63,43,21,29.94,29.76,11,3,11,0.00
2014-10-29,99,70,32,63,44,5,61,40,31,30.06,29.94,13,3,13,0.00
2014-10-30,93,71,61,61,53,49,70,54,30,30.03,29.85,6,1,6,0.00
2014-10-31,99,78,64,60,52,47,57,42,26,29.97,29.71,7,2,7,0.00
2014-11-1,100,83,71,58,53,46,50,37,23,29.85,29.44,26,8,26,0.00
2014-11-2,84,64,32,46,34,3,45,33,20,30.24,29.85,12,3,12,0.00
2014-11-3,78,68,61,49,45,39,61,44,32,30.30,30.21,10,2,10,0.00
2014-11-4,77,68,62,57,53,49,67,59,49,30.30,30.09,9,2,9,0.00
2014-11-5,87,68,32,62,55,28,93,65,33,30.09,29.88,14,2,14,0.00
2014-11-6,76,66,59,59,55,52,82,70,47,30.09,29.88,14,2,14,0.00
2014-11-7,77,67,60,59,54,52,79,65,47,30.24,30.09,10,1,10,0.00
2014-11-8,81,68,59,60,56,52,79,65,45,30.24,30.06,9,2,9,0.00
2014-11-9,83,68,32,65,57,26,80,69,49,30.12,30.00,10,2,10,0.00
2014-11-10,81,70,65,62,59,57,80,69,49,30.12,29.97,8,2,8,0.00
2014-11-11,78,67,63,57,55,51,79,66,43,30.18,30.09,8,2,8,0.00
2014-11-12,76,67,63,57,54,51,77,62,46,30.15,30.00,10,1,10,0.00
2014-11-13,82,71,62,63,59,53,77,66,49,30.12,29.94,6,2,6,0.00
2014-11-14,106,76,32,69,54,22,80,52,18,29.97,29.68,10,2,10,0.00
2014-11-15,143,70,32,100,55,18,70,57,43,29.91,29.76,12,4,12,0.00
2014-11-16,88,67,32,63,49,16,71,55,29,29.88,29.59,20,5,20,0.00
2014-11-17,71,36,32,53,20,16,61,51,45,30.03,29.85,8,1,8,0.00
2014-11-18,83,71,65,61,57,53,76,62,42,30.15,29.97,9,2,9,0.00
2014-11-19,80,70,66,63,60,57,81,71,53,30.18,30.03,8,2,8,0.00
2014-11-20,96,75,66,67,62,59,80,65,37,30.03,29.71,6,2,6,0.00
2014-11-21,106,76,32,63,50,15,61,42,22,29.91,29.62,18,4,18,0.00
2014-11-22,87,59,32,64,43,15,80,54,42,30.03,29.85,12,4,12,0.00
2014-11-23,108,75,32,72,64,12,85,72,27,29.94,29.71,8,1,8,0.00
2014-11-24,89,63,32,69,51,21,83,65,47,29.94,29.71,5,3,5,0.00
2014-11-25,86,73,66,69,62,56,83,70,48,30.15,29.79,11,5,11,0.00
2014-11-26,78,68,32,63,58,24,75,69,60,30.15,30.00,4,2,4,0.00
2014-11-27,73,69,66,63,58,55,81,69,62,30.24,30.09,13,4,13,0.00
2014-11-28,80,69,64,55,53,50,69,58,42,30.24,30.12,6,2,6,0.00
2014-11-29,90,67,32,62,50,17,70,55,38,30.15,29.91,2,1,2,0.00
2014-11-30,94,49,32,65,28,9,67,46,33,29.97,29.82,6,3,6,0.00
2014-12-1,96,55,32,65,32,9,69,42,34,29.91,29.74,4,3,4,0.00
2014-12-2,101,57,32,68,35,11,78,44,28,29.94,29.74,10,2,10,0.00
2014-12-3,106,60,32,68,36,10,67,41,26,30.00,29.76,11,3,11,0.00
2014-12-4,90,64,32,70,47,10,82,54,39,29.97,29.74,7,2,7,0.00
2014-12-5,96,67,32,66,50,20,73,56,37,29.82,29.68,7,2,7,0.04
2014-12-6,92,76,32,67,62,18,82,61,39,29.76,29.62,4,4,4,0.00
2014-12-7,95,64,32,68,48,12,86,59,39,29.74,29.59,4,4,4,0.00
2014-12-8,98,54,32,69,35,12,85,48,38,29.88,29.68,10,5,10,0.00
2014-12-9,80,58,32,66,45,15,81,62,49,30.03,29.88,5,5,5,0.00
2014-12-10,104,62,32,68,53,23,89,74,57,30.03,29.85,5,5,5,0.00
2014-12-11,84,58,32,71,50,23,91,76,70,29.91,29.71,20,10,20,0.00
2014-12-12,68,68,68,61,61,61,79,79,79,30.09,29.88,20,20,20,0.00
2014-12-13,68,68,68,61,61,61,79,79,79,30.09,30.00,20,20,20,0.00
2014-12-14,68,68,68,61,61,61,79,79,79,30.03,29.82,20,20,20,0.00
2014-12-15,68,68,68,61,61,61,79,79,79,29.91,29.82,20,20,20,0.00
2014-12-16,68,68,68,61,61,61,79,79,79,29.85,29.50,20,20,20,0.00
2014-12-17,68,68,68,61,61,61,79,79,79,29.56,29.53,20,20,20,0.00